Observations for AMSTERDAM SCHIPHOL, Netherlands (EHAM)

EHAM 231055Z 28016KT 250V310 9999 FEW023 SCT034 14/09 Q1017 NOSIG   
EHAM 231025Z 27015KT 240V300 9999 FEW023 BKN034 13/09 Q1017 NOSIG   
EHAM 230955Z 28016KT 9999 FEW026 SCT036 13/08 Q1016 NOSIG   
EHAM 230925Z 27017KT 240V300 9999 FEW024 SCT035 13/08 Q1016 NOSIG   
EHAM 230855Z 28015KT 250V310 9999 FEW025 SCT040 13/08 Q1016 NOSIG   
EHAM 230825Z 28015KT 250V310 9999 FEW025 13/08 Q1016 NOSIG  
EHAM 230755Z 27015KT 240V310 9999 FEW025 SCT040 12/08 Q1016 NOSIG   
EHAM 230725Z 27011KT 240V300 9999 FEW024 12/08 Q1016 NOSIG  
EHAM 230655Z 27012KT 240V300 9999 FEW026 SCT039 11/08 Q1015 NOSIG   
EHAM 230625Z 27015KT 240V300 9999 FEW028 SCT033 BKN037 12/08 Q1015 NOSIG
EHAM 230555Z 27015KT 240V300 9999 FEW025 BKN035 12/08 Q1015 NOSIG   
EHAM 230525Z 27016KT 240V300 9999 FEW025 BKN030 12/08 Q1015 NOSIG   
EHAM 230455Z 26014KT 9999 FEW024 BKN032 12/08 Q1014 NOSIG   
EHAM 230425Z 27014KT 9999 FEW024 BKN032 12/08 Q1014 NOSIG   
EHAM 230355Z 26014KT 9999 FEW020 BKN032 12/08 Q1014 NOSIG   
EHAM 230325Z 26014KT 9999 FEW020 BKN032 12/08 Q1014 NOSIG   
EHAM 230255Z 26016KT 9999 FEW020 BKN032 12/08 Q1014 NOSIG   
EHAM 230225Z 26014KT 230V290 9999 FEW020 BKN032 12/09 Q1014 NOSIG   
EHAM 230155Z 26012KT 9999 FEW020 BKN032 12/09 Q1014 NOSIG   
EHAM 230125Z 26013KT 9999 FEW020 SCT026 BKN034 12/09 Q1014 NOSIG
EHAM 230055Z 27013KT 9999 FEW020 BKN026 12/09 Q1013 NOSIG   
EHAM 230025Z 28015KT 250V310 9000 -SHRA FEW018TCU SCT025 BKN036 12/09 Q1013 TEMPO 7000  
EHAM 222355Z 28014KT 250V310 9000 -SHRA FEW018TCU SCT025 BKN036 12/10 Q1013 TEMPO 7000  
EHAM 222325Z 27014KT 8000 -SHRA FEW018TCU SCT022 BKN034 12/09 Q1013 TEMPO 7000  
EHAM 222255Z 27014KT 9999 -SHRA FEW018TCU SCT022 BKN034 12/09 Q1013 NOSIG   
EHAM 222225Z 26013KT 9999 FEW018TCU SCT022 BKN034 12/10 Q1013 NOSIG 
EHAM 222155Z 26013KT 9999 -SHRA FEW018TCU SCT022 BKN034 12/09 Q1013 TEMPO 7000  
EHAM 222125Z 27017KT 9999 FEW012 FEW018TCU BKN041 11/10 Q1012 TEMPO 7000 -SHRA  
EHAM 222055Z 26015KT 7000 -SHRA FEW010 FEW018TCU BKN022 11/10 Q1012 BECMG 9999  
EHAM 222025Z 26014KT 7000 -RADZ FEW010 SCT015 BKN022 11/10 Q1012 TEMPO -SHRA SCT018TCU  
EHAM 221955Z 26014KT 7000 -RADZ FEW008 BKN018 11/10 Q1012 BECMG 9999 SCT018 
EHAM 221925Z 26015KT 7000 -RADZ FEW008 SCT012 BKN018 11/10 Q1012 BECMG 9999 SCT018  
EHAM 221855Z 25015KT 5000 RADZ FEW008 SCT012 BKN015 11/10 Q1012 BECMG 9999 SCT018   
EHAM 221825Z 25014KT 5000 RA FEW008 SCT010 BKN022 11/09 Q1012 BECMG 9999
EHAM 221755Z 25015KT 9000 -RA FEW012 SCT016 BKN045 11/10 Q1011 TEMPO 6000 SCT012 BKN020 
EHAM 221725Z 25015KT 220V280 7000 -RA FEW012 SCT016 BKN045 11/09 Q1011 TEMPO SCT012 BKN020  
EHAM 221655Z 25016KT 9000 -RA FEW012 SCT022 BKN045 11/09 Q1011 BECMG 6000 SCT012 BKN018 
EHAM 221625Z 26019KT 8000 -RA FEW012 SCT035 11/09 Q1011 BECMG 6000 SCT012 BKN018
EHAM 221555Z 27018KT 240V300 9999 -RA FEW018 SCT035 11/09 Q1010 BECMG 6000 -RADZ SCT012 BKN018  
EHAM 221525Z 27018KT 240V300 8000 -SHRA FEW016TCU SCT022 BKN045 11/08 Q1010 BECMG 6000 -RADZ SCT012 BKN018  
EHAM 221455Z 27021KT 9000 -SHRA FEW016TCU SCT018 BKN045 11/09 Q1010 TEMPO 6000  
EHAM 221425Z 26018G29KT 230V290 9999 -SHRA FEW016TCU SCT020 BKN040 12/09 Q1009 TEMPO 6000   
EHAM 221355Z 26018KT 230V290 7000 -SHRA FEW010 FEW016TCU BKN040 12/09 Q1009 TEMPO 9999  
EHAM 221325Z 25016KT 220V280 8000 -SHRA FEW010 FEW016TCU BKN040 12/10 Q1009 TEMPO 6000  
EHAM 221255Z 26017KT 230V300 9999 VCSH FEW018CB SCT045 12/10 Q1009 TEMPO 6000 -SHRA 
EHAM 221225Z 26016KT 230V290 9999 -SHRA FEW016TCU SCT030 BKN040 12/09 Q1009 TEMPO 6000  
EHAM 221155Z 26019KT 9999 -SHRA FEW020TCU SCT029 BKN040 12/09 Q1008 NOSIG   
EHAM 221125Z 26016KT 9999 -SHRA FEW010TCU SCT023 BKN030 12/09 Q1008 NOSIG   
EHAM 221055Z 25015KT 210V280 9999 -SHRA FEW020TCU SCT025 BKN040 12/09 Q1008 NOSIG   
EHAM 221025Z 25016KT 9999 -SHRA FEW025TCU SCT027 BKN040 13/08 Q1008 NOSIG